sensor_id;sensor_type;location;lat;lon;timestamp;temperature;humidity
831;DHT22;397;50.564;7.272;2022-12-08T00:01:19;4.90;99.90
831;DHT22;397;50.564;7.272;2022-12-08T00:03:47;4.90;99.90
831;DHT22;397;50.564;7.272;2022-12-08T00:06:37;4.90;99.90
831;DHT22;397;50.564;7.272;2022-12-08T00:09:32;4.90;99.90
831;DHT22;397;50.564;7.272;2022-12-08T00:12:05;4.80;99.90
831;DHT22;397;50.564;7.272;2022-12-08T00:14:35;4.80;99.90
831;DHT22;397;50.564;7.272;2022-12-08T00:17:04;4.80;99.90
831;DHT22;397;50.564;7.272;2022-12-08T00:19:33;4.80;99.90
831;DHT22;397;50.564;7.272;2022-12-08T00:22:01;4.80;99.90
831;DHT22;397;50.564;7.272;2022-12-08T00:24:30;4.70;99.90
831;DHT22;397;50.564;7.272;2022-12-08T00:26:58;4.70;99.90
831;DHT22;397;50.564;7.272;2022-12-08T00:29:26;4.60;99.90
831;DHT22;397;50.564;7.272;2022-12-08T00:31:53;4.60;99.90
831;DHT22;397;50.564;7.272;2022-12-08T00:34:21;4.60;99.90
831;DHT22;397;50.564;7.272;2022-12-08T00:36:48;4.70;99.90
831;DHT22;397;50.564;7.272;2022-12-08T00:39:17;4.70;99.90
831;DHT22;397;50.564;7.272;2022-12-08T00:41:45;4.80;99.90
831;DHT22;397;50.564;7.272;2022-12-08T00:44:31;4.80;99.90
831;DHT22;397;50.564;7.272;2022-12-08T00:46:58;4.70;99.90
831;DHT22;397;50.564;7.272;2022-12-08T00:49:26;4.70;99.90
831;DHT22;397;50.564;7.272;2022-12-08T00:51:54;4.70;99.90
831;DHT22;397;50.564;7.272;2022-12-08T00:54:21;4.40;99.90
831;DHT22;397;50.564;7.272;2022-12-08T00:56:49;4.40;99.90
831;DHT22;397;50.564;7.272;2022-12-08T00:59:17;4.30;99.90
831;DHT22;397;50.564;7.272;2022-12-08T01:01:45;4.40;99.90
831;DHT22;397;50.564;7.272;2022-12-08T01:04:15;4.30;99.90
831;DHT22;397;50.564;7.272;2022-12-08T01:06:43;4.40;99.90
831;DHT22;397;50.564;7.272;2022-12-08T01:09:12;4.50;99.90
831;DHT22;397;50.564;7.272;2022-12-08T01:11:40;4.50;99.90
831;DHT22;397;50.564;7.272;2022-12-08T01:14:09;4.60;99.90
831;DHT22;397;50.564;7.272;2022-12-08T01:16:37;4.60;99.90
831;DHT22;397;50.564;7.272;2022-12-08T01:19:07;4.70;99.90
831;DHT22;397;50.564;7.272;2022-12-08T01:21:35;4.60;99.90
831;DHT22;397;50.564;7.272;2022-12-08T01:24:03;4.40;99.90
831;DHT22;397;50.564;7.272;2022-12-08T01:26:31;4.50;99.90
831;DHT22;397;50.564;7.272;2022-12-08T01:28:58;4.60;99.90
831;DHT22;397;50.564;7.272;2022-12-08T01:31:26;4.60;99.90
831;DHT22;397;50.564;7.272;2022-12-08T01:33:54;4.60;99.90
831;DHT22;397;50.564;7.272;2022-12-08T01:36:26;4.60;99.90
831;DHT22;397;50.564;7.272;2022-12-08T01:38:57;4.60;99.90
831;DHT22;397;50.564;7.272;2022-12-08T01:41:27;4.60;99.90
831;DHT22;397;50.564;7.272;2022-12-08T01:46:41;4.50;99.90
831;DHT22;397;50.564;7.272;2022-12-08T01:49:22;4.60;99.90
831;DHT22;397;50.564;7.272;2022-12-08T01:54:20;4.70;99.90
831;DHT22;397;50.564;7.272;2022-12-08T01:56:51;4.70;99.90
831;DHT22;397;50.564;7.272;2022-12-08T01:59:19;4.70;99.90
831;DHT22;397;50.564;7.272;2022-12-08T02:01:47;4.70;99.90
831;DHT22;397;50.564;7.272;2022-12-08T02:04:14;4.70;99.90
831;DHT22;397;50.564;7.272;2022-12-08T02:06:43;4.70;99.90
831;DHT22;397;50.564;7.272;2022-12-08T02:09:12;4.70;99.90
831;DHT22;397;50.564;7.272;2022-12-08T02:11:40;4.70;99.90
831;DHT22;397;50.564;7.272;2022-12-08T02:14:09;4.70;99.90
831;DHT22;397;50.564;7.272;2022-12-08T02:16:44;4.70;99.90
831;DHT22;397;50.564;7.272;2022-12-08T02:22:36;4.60;99.90
831;DHT22;397;50.564;7.272;2022-12-08T02:25:35;4.60;99.90
831;DHT22;397;50.564;7.272;2022-12-08T02:30:44;4.60;99.90
831;DHT22;397;50.564;7.272;2022-12-08T02:33:20;4.70;99.90
831;DHT22;397;50.564;7.272;2022-12-08T02:35:54;4.60;99.90
831;DHT22;397;50.564;7.272;2022-12-08T02:43:46;4.70;99.90
831;DHT22;397;50.564;7.272;2022-12-08T02:46:22;4.70;99.90
831;DHT22;397;50.564;7.272;2022-12-08T02:48:51;4.70;99.90
831;DHT22;397;50.564;7.272;2022-12-08T02:51:19;4.80;99.90
831;DHT22;397;50.564;7.272;2022-12-08T02:53:47;4.80;99.90
831;DHT22;397;50.564;7.272;2022-12-08T02:56:33;4.80;99.90
831;DHT22;397;50.564;7.272;2022-12-08T03:07:47;4.80;99.90
831;DHT22;397;50.564;7.272;2022-12-08T03:10:15;4.80;99.90
831;DHT22;397;50.564;7.272;2022-12-08T03:12:43;4.70;99.90
831;DHT22;397;50.564;7.272;2022-12-08T03:15:14;4.80;99.90
831;DHT22;397;50.564;7.272;2022-12-08T03:17:45;4.80;99.90
831;DHT22;397;50.564;7.272;2022-12-08T03:20:15;4.80;99.90
831;DHT22;397;50.564;7.272;2022-12-08T03:22:43;4.70;99.90
831;DHT22;397;50.564;7.272;2022-12-08T03:25:13;4.80;99.90
831;DHT22;397;50.564;7.272;2022-12-08T03:27:42;4.70;99.90
831;DHT22;397;50.564;7.272;2022-12-08T03:30:10;4.70;99.90
831;DHT22;397;50.564;7.272;2022-12-08T03:35:16;4.80;99.90
831;DHT22;397;50.564;7.272;2022-12-08T03:37:45;4.80;99.90
831;DHT22;397;50.564;7.272;2022-12-08T03:40:15;4.70;99.90
831;DHT22;397;50.564;7.272;2022-12-08T03:42:43;4.70;99.90
831;DHT22;397;50.564;7.272;2022-12-08T03:45:11;4.60;99.90
831;DHT22;397;50.564;7.272;2022-12-08T03:47:39;4.60;99.90
831;DHT22;397;50.564;7.272;2022-12-08T03:50:07;4.60;99.90
831;DHT22;397;50.564;7.272;2022-12-08T03:52:34;4.70;99.90
831;DHT22;397;50.564;7.272;2022-12-08T03:55:02;4.60;99.90
831;DHT22;397;50.564;7.272;2022-12-08T03:57:30;4.50;99.90
831;DHT22;397;50.564;7.272;2022-12-08T03:59:57;4.60;99.90
831;DHT22;397;50.564;7.272;2022-12-08T04:02:25;4.40;99.90
831;DHT22;397;50.564;7.272;2022-12-08T04:04:52;4.40;99.90
831;DHT22;397;50.564;7.272;2022-12-08T04:07:20;4.60;99.90
831;DHT22;397;50.564;7.272;2022-12-08T04:09:47;4.70;99.90
831;DHT22;397;50.564;7.272;2022-12-08T04:12:15;4.70;99.90
831;DHT22;397;50.564;7.272;2022-12-08T04:14:42;4.70;99.90
831;DHT22;397;50.564;7.272;2022-12-08T04:17:10;4.70;99.90
831;DHT22;397;50.564;7.272;2022-12-08T04:19:37;4.70;99.90
831;DHT22;397;50.564;7.272;2022-12-08T04:22:06;4.70;99.90
831;DHT22;397;50.564;7.272;2022-12-08T04:24:34;4.50;99.90
831;DHT22;397;50.564;7.272;2022-12-08T04:27:01;4.60;99.90
831;DHT22;397;50.564;7.272;2022-12-08T04:29:29;4.40;99.90
831;DHT22;397;50.564;7.272;2022-12-08T04:31:56;4.50;99.90
831;DHT22;397;50.564;7.272;2022-12-08T04:34:24;4.60;99.90
831;DHT22;397;50.564;7.272;2022-12-08T04:36:51;4.60;99.90
831;DHT22;397;50.564;7.272;2022-12-08T04:39:19;4.60;99.90
831;DHT22;397;50.564;7.272;2022-12-08T04:41:46;4.60;99.90
831;DHT22;397;50.564;7.272;2022-12-08T04:44:14;4.60;99.90
831;DHT22;397;50.564;7.272;2022-12-08T04:46:41;4.50;99.90
831;DHT22;397;50.564;7.272;2022-12-08T04:49:09;4.50;99.90
831;DHT22;397;50.564;7.272;2022-12-08T04:51:36;4.60;99.90
831;DHT22;397;50.564;7.272;2022-12-08T04:54:04;4.70;99.90
831;DHT22;397;50.564;7.272;2022-12-08T04:56:31;4.70;99.90
831;DHT22;397;50.564;7.272;2022-12-08T04:58:59;4.70;99.90
831;DHT22;397;50.564;7.272;2022-12-08T05:01:26;4.60;99.90
831;DHT22;397;50.564;7.272;2022-12-08T05:03:54;4.60;99.90
831;DHT22;397;50.564;7.272;2022-12-08T05:06:21;4.70;99.90
831;DHT22;397;50.564;7.272;2022-12-08T05:08:49;4.70;99.90
831;DHT22;397;50.564;7.272;2022-12-08T05:11:17;4.70;99.90
831;DHT22;397;50.564;7.272;2022-12-08T05:13:45;4.70;99.90
831;DHT22;397;50.564;7.272;2022-12-08T05:16:14;4.60;99.90
831;DHT22;397;50.564;7.272;2022-12-08T05:18:42;4.60;99.90
831;DHT22;397;50.564;7.272;2022-12-08T05:21:10;4.60;99.90
831;DHT22;397;50.564;7.272;2022-12-08T05:23:37;4.50;99.90
831;DHT22;397;50.564;7.272;2022-12-08T05:26:05;4.60;99.90
831;DHT22;397;50.564;7.272;2022-12-08T05:28:33;4.70;99.90
831;DHT22;397;50.564;7.272;2022-12-08T05:31:00;4.70;99.90
831;DHT22;397;50.564;7.272;2022-12-08T05:33:28;4.70;99.90
831;DHT22;397;50.564;7.272;2022-12-08T05:35:55;4.70;99.90
831;DHT22;397;50.564;7.272;2022-12-08T05:38:23;4.70;99.90
831;DHT22;397;50.564;7.272;2022-12-08T05:40:50;4.80;99.90
831;DHT22;397;50.564;7.272;2022-12-08T05:43:18;4.80;99.90
831;DHT22;397;50.564;7.272;2022-12-08T05:45:45;4.80;99.90
831;DHT22;397;50.564;7.272;2022-12-08T05:48:13;4.80;99.90
831;DHT22;397;50.564;7.272;2022-12-08T05:50:45;4.70;99.90
831;DHT22;397;50.564;7.272;2022-12-08T05:53:14;4.70;99.90
831;DHT22;397;50.564;7.272;2022-12-08T05:55:43;4.80;99.90
831;DHT22;397;50.564;7.272;2022-12-08T05:58:16;4.80;99.90
831;DHT22;397;50.564;7.272;2022-12-08T06:00:45;4.80;99.90
831;DHT22;397;50.564;7.272;2022-12-08T06:03:15;4.80;99.90
831;DHT22;397;50.564;7.272;2022-12-08T06:05:44;4.70;99.90
831;DHT22;397;50.564;7.272;2022-12-08T06:08:12;4.80;99.90
831;DHT22;397;50.564;7.272;2022-12-08T06:10:42;4.70;99.90
831;DHT22;397;50.564;7.272;2022-12-08T06:13:09;4.70;99.90
831;DHT22;397;50.564;7.272;2022-12-08T06:15:38;4.70;99.90
831;DHT22;397;50.564;7.272;2022-12-08T06:18:06;4.90;99.90
831;DHT22;397;50.564;7.272;2022-12-08T06:20:34;4.80;99.90
831;DHT22;397;50.564;7.272;2022-12-08T06:23:01;4.70;99.90
831;DHT22;397;50.564;7.272;2022-12-08T06:25:29;4.60;99.90
831;DHT22;397;50.564;7.272;2022-12-08T06:27:56;4.70;99.90
831;DHT22;397;50.564;7.272;2022-12-08T06:30:24;4.70;99.90
831;DHT22;397;50.564;7.272;2022-12-08T06:32:52;4.70;99.90
831;DHT22;397;50.564;7.272;2022-12-08T06:35:20;4.80;99.90
831;DHT22;397;50.564;7.272;2022-12-08T06:37:47;4.80;99.90
831;DHT22;397;50.564;7.272;2022-12-08T06:40:17;4.80;99.90
831;DHT22;397;50.564;7.272;2022-12-08T06:42:44;4.80;99.90
831;DHT22;397;50.564;7.272;2022-12-08T06:45:15;4.70;99.90
831;DHT22;397;50.564;7.272;2022-12-08T06:47:43;4.70;99.90
831;DHT22;397;50.564;7.272;2022-12-08T06:50:11;4.70;99.90
831;DHT22;397;50.564;7.272;2022-12-08T06:52:39;4.50;99.90
831;DHT22;397;50.564;7.272;2022-12-08T06:55:08;4.50;99.90
831;DHT22;397;50.564;7.272;2022-12-08T06:57:36;4.60;99.90
831;DHT22;397;50.564;7.272;2022-12-08T07:00:05;4.70;99.90
831;DHT22;397;50.564;7.272;2022-12-08T07:02:33;4.60;99.90
831;DHT22;397;50.564;7.272;2022-12-08T07:05:00;4.60;99.90
831;DHT22;397;50.564;7.272;2022-12-08T07:07:28;4.60;99.90
831;DHT22;397;50.564;7.272;2022-12-08T07:09:56;4.50;99.90
831;DHT22;397;50.564;7.272;2022-12-08T07:12:23;4.50;99.90
831;DHT22;397;50.564;7.272;2022-12-08T07:14:50;4.60;99.90
831;DHT22;397;50.564;7.272;2022-12-08T07:17:18;4.60;99.90
831;DHT22;397;50.564;7.272;2022-12-08T07:19:45;4.60;99.90
831;DHT22;397;50.564;7.272;2022-12-08T07:22:13;4.70;99.90
831;DHT22;397;50.564;7.272;2022-12-08T07:24:40;4.70;99.90
831;DHT22;397;50.564;7.272;2022-12-08T07:27:08;4.80;99.90
831;DHT22;397;50.564;7.272;2022-12-08T07:29:35;4.70;99.90
831;DHT22;397;50.564;7.272;2022-12-08T07:32:03;4.70;99.90
831;DHT22;397;50.564;7.272;2022-12-08T07:34:31;4.80;99.90
831;DHT22;397;50.564;7.272;2022-12-08T07:36:58;4.90;99.90
831;DHT22;397;50.564;7.272;2022-12-08T07:39:26;5.00;99.90
831;DHT22;397;50.564;7.272;2022-12-08T07:41:53;5.10;99.90
831;DHT22;397;50.564;7.272;2022-12-08T07:44:21;5.00;99.90
831;DHT22;397;50.564;7.272;2022-12-08T07:46:48;4.90;99.90
831;DHT22;397;50.564;7.272;2022-12-08T07:49:16;4.80;99.90
831;DHT22;397;50.564;7.272;2022-12-08T07:51:43;4.80;99.90
831;DHT22;397;50.564;7.272;2022-12-08T07:54:12;4.80;99.90
831;DHT22;397;50.564;7.272;2022-12-08T07:56:39;4.90;99.90
831;DHT22;397;50.564;7.272;2022-12-08T07:59:07;4.90;99.90
831;DHT22;397;50.564;7.272;2022-12-08T08:01:34;4.90;99.90
831;DHT22;397;50.564;7.272;2022-12-08T08:04:03;4.90;99.90
831;DHT22;397;50.564;7.272;2022-12-08T08:06:32;4.90;99.90
831;DHT22;397;50.564;7.272;2022-12-08T08:09:00;4.90;99.90
831;DHT22;397;50.564;7.272;2022-12-08T08:11:27;5.00;99.90
831;DHT22;397;50.564;7.272;2022-12-08T08:13:57;5.00;99.90
831;DHT22;397;50.564;7.272;2022-12-08T08:16:24;5.10;99.90
831;DHT22;397;50.564;7.272;2022-12-08T08:18:52;5.20;99.90
831;DHT22;397;50.564;7.272;2022-12-08T08:21:20;5.30;99.90
831;DHT22;397;50.564;7.272;2022-12-08T08:23:48;5.30;99.90
831;DHT22;397;50.564;7.272;2022-12-08T08:26:15;5.30;99.90
831;DHT22;397;50.564;7.272;2022-12-08T08:28:43;5.20;99.90
831;DHT22;397;50.564;7.272;2022-12-08T08:31:11;5.20;99.90
831;DHT22;397;50.564;7.272;2022-12-08T08:33:39;5.10;99.90
831;DHT22;397;50.564;7.272;2022-12-08T08:36:10;5.10;99.90
831;DHT22;397;50.564;7.272;2022-12-08T08:38:37;5.10;99.90
831;DHT22;397;50.564;7.272;2022-12-08T08:41:09;5.10;99.90
831;DHT22;397;50.564;7.272;2022-12-08T08:43:37;5.30;99.90
831;DHT22;397;50.564;7.272;2022-12-08T08:46:05;5.30;99.90
831;DHT22;397;50.564;7.272;2022-12-08T08:48:34;5.30;99.90
831;DHT22;397;50.564;7.272;2022-12-08T08:51:12;5.30;99.90
831;DHT22;397;50.564;7.272;2022-12-08T08:53:41;5.40;99.90
831;DHT22;397;50.564;7.272;2022-12-08T08:56:11;5.40;99.90
831;DHT22;397;50.564;7.272;2022-12-08T08:58:39;5.40;99.90
831;DHT22;397;50.564;7.272;2022-12-08T09:01:07;5.40;99.90
831;DHT22;397;50.564;7.272;2022-12-08T09:03:35;5.40;99.90
831;DHT22;397;50.564;7.272;2022-12-08T09:06:03;5.50;99.90
831;DHT22;397;50.564;7.272;2022-12-08T09:08:30;5.40;99.90
831;DHT22;397;50.564;7.272;2022-12-08T09:10:58;5.50;99.90
831;DHT22;397;50.564;7.272;2022-12-08T09:13:25;5.50;99.90
831;DHT22;397;50.564;7.272;2022-12-08T09:15:53;5.60;99.90
831;DHT22;397;50.564;7.272;2022-12-08T09:18:20;5.60;99.90
831;DHT22;397;50.564;7.272;2022-12-08T09:20:48;5.60;99.90
831;DHT22;397;50.564;7.272;2022-12-08T09:23:15;5.70;99.90
831;DHT22;397;50.564;7.272;2022-12-08T09:25:46;5.70;99.90
831;DHT22;397;50.564;7.272;2022-12-08T09:28:14;5.80;99.90
831;DHT22;397;50.564;7.272;2022-12-08T09:30:41;5.80;99.90
831;DHT22;397;50.564;7.272;2022-12-08T09:33:09;5.80;99.90
831;DHT22;397;50.564;7.272;2022-12-08T09:35:36;5.80;99.90
831;DHT22;397;50.564;7.272;2022-12-08T09:38:04;5.80;99.90
831;DHT22;397;50.564;7.272;2022-12-08T09:40:36;5.90;99.90
831;DHT22;397;50.564;7.272;2022-12-08T09:43:19;5.80;99.90
831;DHT22;397;50.564;7.272;2022-12-08T09:45:45;5.90;99.90
831;DHT22;397;50.564;7.272;2022-12-08T09:48:19;5.80;99.90
831;DHT22;397;50.564;7.272;2022-12-08T09:50:57;5.70;99.90
831;DHT22;397;50.564;7.272;2022-12-08T09:53:34;5.70;99.90
831;DHT22;397;50.564;7.272;2022-12-08T09:56:05;5.70;99.90
831;DHT22;397;50.564;7.272;2022-12-08T10:01:13;5.90;99.90
831;DHT22;397;50.564;7.272;2022-12-08T10:03:41;5.80;99.90
831;DHT22;397;50.564;7.272;2022-12-08T10:12:08;5.80;99.90
831;DHT22;397;50.564;7.272;2022-12-08T10:19:47;5.80;99.90
831;DHT22;397;50.564;7.272;2022-12-08T10:22:23;5.70;99.90
831;DHT22;397;50.564;7.272;2022-12-08T10:25:00;5.80;99.90
831;DHT22;397;50.564;7.272;2022-12-08T10:27:28;5.70;99.90
831;DHT22;397;50.564;7.272;2022-12-08T10:29:56;5.80;99.90
831;DHT22;397;50.564;7.272;2022-12-08T10:32:24;5.80;99.90
831;DHT22;397;50.564;7.272;2022-12-08T10:37:33;6.00;99.90
831;DHT22;397;50.564;7.272;2022-12-08T10:40:09;6.10;99.90
831;DHT22;397;50.564;7.272;2022-12-08T10:42:39;6.10;99.90
831;DHT22;397;50.564;7.272;2022-12-08T10:48:14;6.20;99.90
831;DHT22;397;50.564;7.272;2022-12-08T10:50:35;6.30;99.90
831;DHT22;397;50.564;7.272;2022-12-08T10:53:12;6.40;99.90
831;DHT22;397;50.564;7.272;2022-12-08T10:55:45;6.30;99.90
831;DHT22;397;50.564;7.272;2022-12-08T10:58:23;6.30;99.90
831;DHT22;397;50.564;7.272;2022-12-08T11:00:54;6.30;99.90
831;DHT22;397;50.564;7.272;2022-12-08T11:03:26;6.30;99.90
831;DHT22;397;50.564;7.272;2022-12-08T11:05:55;6.40;99.90
831;DHT22;397;50.564;7.272;2022-12-08T11:08:23;6.40;99.90
831;DHT22;397;50.564;7.272;2022-12-08T11:10:51;6.30;99.90
831;DHT22;397;50.564;7.272;2022-12-08T11:13:24;6.40;99.90
831;DHT22;397;50.564;7.272;2022-12-08T11:15:54;6.50;99.90
831;DHT22;397;50.564;7.272;2022-12-08T11:18:37;6.70;99.90
831;DHT22;397;50.564;7.272;2022-12-08T11:21:13;6.70;99.90
831;DHT22;397;50.564;7.272;2022-12-08T11:23:45;6.80;99.90
831;DHT22;397;50.564;7.272;2022-12-08T11:26:22;6.90;99.90
831;DHT22;397;50.564;7.272;2022-12-08T11:28:47;6.90;99.90
831;DHT22;397;50.564;7.272;2022-12-08T11:31:33;6.90;99.90
831;DHT22;397;50.564;7.272;2022-12-08T11:34:02;7.00;99.90
831;DHT22;397;50.564;7.272;2022-12-08T11:36:31;6.90;99.90
831;DHT22;397;50.564;7.272;2022-12-08T11:39:02;6.90;99.90
831;DHT22;397;50.564;7.272;2022-12-08T11:41:40;6.70;99.90
831;DHT22;397;50.564;7.272;2022-12-08T11:46:54;7.00;99.90
831;DHT22;397;50.564;7.272;2022-12-08T11:49:35;6.90;99.90
831;DHT22;397;50.564;7.272;2022-12-08T11:52:00;6.90;99.90
831;DHT22;397;50.564;7.272;2022-12-08T11:54:33;7.00;99.90
831;DHT22;397;50.564;7.272;2022-12-08T11:57:00;7.10;99.90
831;DHT22;397;50.564;7.272;2022-12-08T11:59:38;7.10;99.90
831;DHT22;397;50.564;7.272;2022-12-08T12:02:21;7.10;99.90
831;DHT22;397;50.564;7.272;2022-12-08T12:04:51;7.10;99.90
831;DHT22;397;50.564;7.272;2022-12-08T12:10:39;7.00;99.90
831;DHT22;397;50.564;7.272;2022-12-08T12:18:57;7.20;99.90
831;DHT22;397;50.564;7.272;2022-12-08T12:21:47;7.00;99.90
831;DHT22;397;50.564;7.272;2022-12-08T12:24:16;7.00;99.90
831;DHT22;397;50.564;7.272;2022-12-08T12:29:53;6.90;99.90
831;DHT22;397;50.564;7.272;2022-12-08T12:32:20;6.90;99.90
831;DHT22;397;50.564;7.272;2022-12-08T12:34:50;6.80;99.90
831;DHT22;397;50.564;7.272;2022-12-08T12:37:21;6.90;99.90
831;DHT22;397;50.564;7.272;2022-12-08T12:42:40;6.90;99.90
831;DHT22;397;50.564;7.272;2022-12-08T12:56:01;6.70;99.90
831;DHT22;397;50.564;7.272;2022-12-08T13:04:07;6.80;99.90
831;DHT22;397;50.564;7.272;2022-12-08T13:06:44;6.80;99.90
831;DHT22;397;50.564;7.272;2022-12-08T13:09:42;6.70;99.90
831;DHT22;397;50.564;7.272;2022-12-08T13:11:49;6.60;99.90
831;DHT22;397;50.564;7.272;2022-12-08T13:14:38;6.50;99.90
831;DHT22;397;50.564;7.272;2022-12-08T13:17:09;6.50;99.90
831;DHT22;397;50.564;7.272;2022-12-08T13:19:37;6.50;99.90
831;DHT22;397;50.564;7.272;2022-12-08T13:30:48;6.40;99.90
831;DHT22;397;50.564;7.272;2022-12-08T13:33:21;6.50;99.90
831;DHT22;397;50.564;7.272;2022-12-08T13:36:24;6.60;99.90
831;DHT22;397;50.564;7.272;2022-12-08T13:38:25;6.60;99.90
831;DHT22;397;50.564;7.272;2022-12-08T13:40:55;6.50;99.90
831;DHT22;397;50.564;7.272;2022-12-08T13:44:10;6.60;99.90
831;DHT22;397;50.564;7.272;2022-12-08T13:45:57;6.60;99.90
831;DHT22;397;50.564;7.272;2022-12-08T13:48:31;6.60;99.90
831;DHT22;397;50.564;7.272;2022-12-08T13:51:12;6.50;99.90
831;DHT22;397;50.564;7.272;2022-12-08T13:53:39;6.50;99.90
831;DHT22;397;50.564;7.272;2022-12-08T13:56:09;6.50;99.90
831;DHT22;397;50.564;7.272;2022-12-08T13:58:38;6.40;99.90
831;DHT22;397;50.564;7.272;2022-12-08T14:01:20;6.50;99.90
831;DHT22;397;50.564;7.272;2022-12-08T14:03:56;6.40;99.90
831;DHT22;397;50.564;7.272;2022-12-08T14:06:38;6.40;99.90
831;DHT22;397;50.564;7.272;2022-12-08T14:09:11;6.40;99.90
831;DHT22;397;50.564;7.272;2022-12-08T14:11:43;6.30;99.90
831;DHT22;397;50.564;7.272;2022-12-08T14:14:49;6.30;99.90
831;DHT22;397;50.564;7.272;2022-12-08T14:16:55;6.20;99.90
831;DHT22;397;50.564;7.272;2022-12-08T14:19:27;6.20;99.90
831;DHT22;397;50.564;7.272;2022-12-08T14:22:01;6.10;99.90
831;DHT22;397;50.564;7.272;2022-12-08T14:24:30;6.10;99.90
831;DHT22;397;50.564;7.272;2022-12-08T14:27:00;6.10;99.90
831;DHT22;397;50.564;7.272;2022-12-08T14:29:39;6.10;99.90
831;DHT22;397;50.564;7.272;2022-12-08T14:32:35;6.10;99.90
831;DHT22;397;50.564;7.272;2022-12-08T14:37:41;5.90;99.90
831;DHT22;397;50.564;7.272;2022-12-08T14:43:04;5.80;99.90
831;DHT22;397;50.564;7.272;2022-12-08T14:45:19;5.80;99.90
831;DHT22;397;50.564;7.272;2022-12-08T14:47:47;5.80;99.90
831;DHT22;397;50.564;7.272;2022-12-08T14:53:14;5.90;99.90
831;DHT22;397;50.564;7.272;2022-12-08T14:55:38;5.90;99.90
831;DHT22;397;50.564;7.272;2022-12-08T14:58:05;5.90;99.90
831;DHT22;397;50.564;7.272;2022-12-08T15:00:33;5.80;99.90
831;DHT22;397;50.564;7.272;2022-12-08T15:03:04;5.80;99.90
831;DHT22;397;50.564;7.272;2022-12-08T15:05:32;5.80;99.90
831;DHT22;397;50.564;7.272;2022-12-08T15:08:02;5.70;99.90
831;DHT22;397;50.564;7.272;2022-12-08T15:10:31;5.80;99.90
831;DHT22;397;50.564;7.272;2022-12-08T15:15:50;5.70;99.90
831;DHT22;397;50.564;7.272;2022-12-08T15:18:27;5.60;99.90
831;DHT22;397;50.564;7.272;2022-12-08T15:20:50;5.60;99.90
831;DHT22;397;50.564;7.272;2022-12-08T15:23:23;5.60;99.90
831;DHT22;397;50.564;7.272;2022-12-08T15:25:50;5.60;99.90
831;DHT22;397;50.564;7.272;2022-12-08T15:28:20;5.60;99.90
831;DHT22;397;50.564;7.272;2022-12-08T15:30:58;5.50;99.90
831;DHT22;397;50.564;7.272;2022-12-08T15:33:26;5.50;99.90
831;DHT22;397;50.564;7.272;2022-12-08T15:35:53;5.60;99.90
831;DHT22;397;50.564;7.272;2022-12-08T15:38:26;5.50;99.90
831;DHT22;397;50.564;7.272;2022-12-08T15:40:56;5.50;99.90
831;DHT22;397;50.564;7.272;2022-12-08T15:43:27;5.50;99.90
831;DHT22;397;50.564;7.272;2022-12-08T15:45:55;5.40;99.90
831;DHT22;397;50.564;7.272;2022-12-08T15:48:24;5.40;99.90
831;DHT22;397;50.564;7.272;2022-12-08T15:50:54;5.40;99.90
831;DHT22;397;50.564;7.272;2022-12-08T15:53:22;5.50;99.90
831;DHT22;397;50.564;7.272;2022-12-08T15:55:50;5.50;99.90
831;DHT22;397;50.564;7.272;2022-12-08T15:58:22;5.40;99.90
831;DHT22;397;50.564;7.272;2022-12-08T16:00:52;5.40;99.90
831;DHT22;397;50.564;7.272;2022-12-08T16:03:28;5.50;99.90
831;DHT22;397;50.564;7.272;2022-12-08T16:05:57;5.50;99.90
831;DHT22;397;50.564;7.272;2022-12-08T16:08:28;5.40;99.90
831;DHT22;397;50.564;7.272;2022-12-08T16:10:56;5.40;99.90
831;DHT22;397;50.564;7.272;2022-12-08T16:13:26;5.30;99.90
831;DHT22;397;50.564;7.272;2022-12-08T16:16:12;5.30;99.90
831;DHT22;397;50.564;7.272;2022-12-08T16:18:42;5.40;99.90
831;DHT22;397;50.564;7.272;2022-12-08T16:21:10;5.30;99.90
831;DHT22;397;50.564;7.272;2022-12-08T16:23:37;5.20;99.90
831;DHT22;397;50.564;7.272;2022-12-08T16:26:05;5.20;99.90
831;DHT22;397;50.564;7.272;2022-12-08T16:28:34;5.30;99.90
831;DHT22;397;50.564;7.272;2022-12-08T16:31:02;5.20;99.90
831;DHT22;397;50.564;7.272;2022-12-08T16:33:29;5.30;99.90
831;DHT22;397;50.564;7.272;2022-12-08T16:35:57;5.30;99.90
831;DHT22;397;50.564;7.272;2022-12-08T16:38:24;5.30;99.90
831;DHT22;397;50.564;7.272;2022-12-08T16:40:52;5.10;99.90
831;DHT22;397;50.564;7.272;2022-12-08T16:43:38;5.00;99.90
831;DHT22;397;50.564;7.272;2022-12-08T16:46:05;5.20;99.90
831;DHT22;397;50.564;7.272;2022-12-08T16:48:33;5.10;99.90
831;DHT22;397;50.564;7.272;2022-12-08T16:51:00;5.20;99.90
831;DHT22;397;50.564;7.272;2022-12-08T16:53:29;5.10;99.90
831;DHT22;397;50.564;7.272;2022-12-08T16:55:57;5.20;99.90
831;DHT22;397;50.564;7.272;2022-12-08T16:58:24;5.20;99.90
831;DHT22;397;50.564;7.272;2022-12-08T17:00:52;5.20;99.90
831;DHT22;397;50.564;7.272;2022-12-08T17:03:20;5.20;99.90
831;DHT22;397;50.564;7.272;2022-12-08T17:05:47;5.10;99.90
831;DHT22;397;50.564;7.272;2022-12-08T17:08:15;5.10;99.90
831;DHT22;397;50.564;7.272;2022-12-08T17:10:42;5.10;99.90
831;DHT22;397;50.564;7.272;2022-12-08T17:13:11;5.10;99.90
831;DHT22;397;50.564;7.272;2022-12-08T17:15:41;5.10;99.90
831;DHT22;397;50.564;7.272;2022-12-08T17:18:08;5.10;99.90
831;DHT22;397;50.564;7.272;2022-12-08T17:20:36;5.10;99.90
831;DHT22;397;50.564;7.272;2022-12-08T17:23:05;5.10;99.90
831;DHT22;397;50.564;7.272;2022-12-08T17:25:33;5.10;99.90
831;DHT22;397;50.564;7.272;2022-12-08T17:28:02;5.10;99.90
831;DHT22;397;50.564;7.272;2022-12-08T17:30:29;5.10;99.90
831;DHT22;397;50.564;7.272;2022-12-08T17:32:57;5.10;99.90
831;DHT22;397;50.564;7.272;2022-12-08T17:35:25;5.20;99.90
831;DHT22;397;50.564;7.272;2022-12-08T17:37:52;5.20;99.90
831;DHT22;397;50.564;7.272;2022-12-08T17:40:20;5.20;99.90
831;DHT22;397;50.564;7.272;2022-12-08T17:42:47;5.20;99.90
831;DHT22;397;50.564;7.272;2022-12-08T17:45:15;5.10;99.90
831;DHT22;397;50.564;7.272;2022-12-08T17:47:42;5.10;99.90
831;DHT22;397;50.564;7.272;2022-12-08T17:50:10;5.10;99.90
831;DHT22;397;50.564;7.272;2022-12-08T17:52:37;5.10;99.90
831;DHT22;397;50.564;7.272;2022-12-08T17:55:06;5.00;99.90
831;DHT22;397;50.564;7.272;2022-12-08T17:57:33;5.00;99.90
831;DHT22;397;50.564;7.272;2022-12-08T18:00:01;5.00;99.90
831;DHT22;397;50.564;7.272;2022-12-08T18:02:28;5.00;99.90
831;DHT22;397;50.564;7.272;2022-12-08T18:04:58;5.00;99.90
831;DHT22;397;50.564;7.272;2022-12-08T18:07:25;4.90;99.90
831;DHT22;397;50.564;7.272;2022-12-08T18:09:53;4.90;99.90
831;DHT22;397;50.564;7.272;2022-12-08T18:12:21;4.90;99.90
831;DHT22;397;50.564;7.272;2022-12-08T18:14:48;4.80;99.90
831;DHT22;397;50.564;7.272;2022-12-08T18:17:17;4.80;99.90
831;DHT22;397;50.564;7.272;2022-12-08T18:19:45;4.80;99.90
831;DHT22;397;50.564;7.272;2022-12-08T18:22:13;4.80;99.90
831;DHT22;397;50.564;7.272;2022-12-08T18:24:41;4.80;99.90
831;DHT22;397;50.564;7.272;2022-12-08T18:27:09;4.80;99.90
831;DHT22;397;50.564;7.272;2022-12-08T18:29:37;4.80;99.90
831;DHT22;397;50.564;7.272;2022-12-08T18:32:05;4.80;99.90
831;DHT22;397;50.564;7.272;2022-12-08T18:34:33;4.60;99.90
831;DHT22;397;50.564;7.272;2022-12-08T18:37:01;4.60;99.90
831;DHT22;397;50.564;7.272;2022-12-08T18:39:30;4.50;99.90
831;DHT22;397;50.564;7.272;2022-12-08T18:41:59;4.30;99.90
831;DHT22;397;50.564;7.272;2022-12-08T18:44:29;4.40;99.90
831;DHT22;397;50.564;7.272;2022-12-08T18:46:56;4.50;99.90
831;DHT22;397;50.564;7.272;2022-12-08T18:49:24;4.30;99.90